createdAt,value
2023-03-13T00:09:31.626Z,4.80
2023-03-13T00:19:33.162Z,3.13
2023-03-13T00:29:34.930Z,3.28
2023-03-13T00:39:36.589Z,3.72
2023-03-13T00:49:38.207Z,3.60
2023-03-13T00:59:40.788Z,4.22
2023-03-13T01:09:42.364Z,3.40
2023-03-13T01:19:44.376Z,4.65
2023-03-13T01:29:46.036Z,3.85
2023-03-13T01:39:47.795Z,3.88
2023-03-13T01:49:51.244Z,3.47
2023-03-13T02:00:16.803Z,2.92
2023-03-13T02:10:19.916Z,3.80
2023-03-13T02:20:22.314Z,3.75
2023-03-13T02:30:27.656Z,4.33
2023-03-13T02:40:38.681Z,3.42
2023-03-13T02:50:40.494Z,4.05
2023-03-13T03:00:42.298Z,5.57
2023-03-13T03:10:44.024Z,3.75
2023-03-13T03:20:45.940Z,2.20
2023-03-13T03:30:47.598Z,2.35
2023-03-13T03:40:49.694Z,2.83
2023-03-13T03:50:51.609Z,2.20
2023-03-13T04:00:56.625Z,2.08
2023-03-13T04:11:01.634Z,2.87
2023-03-13T04:21:06.034Z,2.50
2023-03-13T04:31:16.011Z,2.35
2023-03-13T04:41:36.508Z,1.60
2023-03-13T04:51:52.973Z,1.63
2023-03-13T05:02:19.104Z,2.15
2023-03-13T05:12:39.540Z,1.23
2023-03-13T05:22:48.478Z,0.82
2023-03-13T05:33:16.256Z,1.10
2023-03-13T05:43:30.481Z,0.50
2023-03-13T05:53:56.808Z,0.50
2023-03-13T06:04:18.818Z,0.40
2023-03-13T06:14:21.303Z,0.73
2023-03-13T06:24:45.006Z,0.82
2023-03-13T06:34:46.712Z,1.10
2023-03-13T06:44:48.623Z,0.93
2023-03-13T06:54:50.178Z,0.40
2023-03-13T07:04:52.563Z,1.17
2023-03-13T07:14:54.215Z,1.85
2023-03-13T07:24:55.932Z,0.30
2023-03-13T07:34:57.614Z,1.20
2023-03-13T07:44:59.215Z,1.23
2023-03-13T07:55:00.832Z,0.85
2023-03-13T08:05:02.436Z,1.90
2023-03-13T08:15:04.074Z,1.25
2023-03-13T08:25:05.927Z,0.70
2023-03-13T08:35:08.058Z,1.10
2023-03-13T08:45:10.022Z,0.82
2023-03-13T08:55:11.613Z,0.82
2023-03-13T09:05:13.297Z,1.25
2023-03-13T09:15:14.943Z,0.50
2023-03-13T09:25:16.585Z,0.73
2023-03-13T09:35:18.139Z,0.60
2023-03-13T09:45:32.533Z,1.13
2023-03-13T09:55:36.610Z,0.90
2023-03-13T10:05:39.984Z,0.52
2023-03-13T10:16:09.640Z,0.88
2023-03-13T10:26:17.665Z,2.08
2023-03-13T10:36:19.623Z,0.63
2023-03-13T10:46:33.391Z,0.75
2023-03-13T10:56:34.984Z,1.30
2023-03-13T11:06:41.453Z,0.60
2023-03-13T11:16:54.394Z,0.50
2023-03-13T11:27:21.131Z,1.58
2023-03-13T11:37:22.837Z,1.73
2023-03-13T11:47:32.191Z,1.20
2023-03-13T11:57:49.253Z,1.02
2023-03-13T12:07:52.957Z,1.30
2023-03-13T12:18:00.201Z,0.65
2023-03-13T12:28:24.809Z,0.95
2023-03-13T12:38:31.327Z,1.20
2023-03-13T12:48:42.989Z,1.02
2023-03-13T12:58:54.424Z,1.35
2023-03-13T13:09:15.376Z,2.03
2023-03-13T13:19:22.790Z,2.38
2023-03-13T13:29:25.263Z,1.13
2023-03-13T13:39:43.495Z,0.80
2023-03-13T13:49:55.910Z,1.00
2023-03-13T14:00:25.224Z,0.52
2023-03-13T14:10:36.327Z,1.90
2023-03-13T14:20:39.883Z,1.38
2023-03-13T14:30:44.168Z,1.58
2023-03-13T14:40:48.593Z,1.43
2023-03-13T14:51:14.299Z,1.80
2023-03-13T15:01:30.568Z,1.30
2023-03-13T15:11:33.916Z,2.08
2023-03-13T15:21:35.939Z,2.92
2023-03-13T15:31:37.786Z,2.83
2023-03-13T15:41:39.425Z,2.10
2023-03-13T15:51:41.344Z,2.88
2023-03-13T16:01:45.000Z,1.88
2023-03-13T16:11:47.892Z,2.50
2023-03-13T16:21:50.473Z,2.90
2023-03-13T16:31:52.035Z,1.55
2023-03-13T16:41:54.655Z,1.75
2023-03-13T16:51:56.222Z,5.88
2023-03-13T17:01:58.054Z,6.30
2023-03-13T17:11:59.887Z,5.10
2023-03-13T17:22:02.776Z,4.60
2023-03-13T17:32:06.187Z,6.57
2023-03-13T17:42:08.111Z,4.88
2023-03-13T17:52:13.227Z,6.35
2023-03-13T18:02:16.128Z,6.25
2023-03-13T18:12:17.728Z,7.53
2023-03-13T18:22:23.225Z,4.00
2023-03-13T18:32:24.890Z,4.38
2023-03-13T18:42:26.922Z,6.20
2023-03-13T18:52:28.517Z,5.65
2023-03-13T19:02:30.169Z,4.38
2023-03-13T19:12:31.767Z,5.28
2023-03-13T19:22:33.373Z,5.03
2023-03-13T19:32:37.059Z,5.88
2023-03-13T19:42:38.761Z,5.25
2023-03-13T19:52:40.343Z,5.70
2023-03-13T20:02:42.208Z,7.53
2023-03-13T20:12:43.841Z,4.22
2023-03-13T20:22:46.465Z,6.63
2023-03-13T20:32:58.764Z,4.32
2023-03-13T20:43:01.500Z,4.10
2023-03-13T20:53:03.068Z,4.90
2023-03-13T21:03:04.805Z,4.20
2023-03-13T21:13:08.467Z,4.70
2023-03-13T21:23:10.104Z,4.93
2023-03-13T21:33:11.876Z,3.30
2023-03-13T21:43:14.695Z,6.25
2023-03-13T21:53:16.296Z,4.75
2023-03-13T22:03:18.860Z,5.70
2023-03-13T22:13:20.852Z,4.78
2023-03-13T22:23:22.664Z,4.10
2023-03-13T22:33:24.303Z,4.13
2023-03-13T22:43:27.561Z,5.22
2023-03-13T22:53:29.931Z,6.45
2023-03-13T23:03:31.498Z,4.78
2023-03-13T23:13:33.251Z,4.07
2023-03-13T23:23:36.433Z,5.60
2023-03-13T23:33:38.266Z,4.95
2023-03-13T23:43:40.330Z,5.00
2023-03-13T23:53:43.135Z,5.22
